Time;durP1;ratioP1;P1;durP2;ratioP2;P2;SDS_P1;SDS_P2;PMS_P1;PMS_P2;Temp;Humidity;BMP_temperature;BMP_pressure;BME280_temperature;BME280_humidity;BME280_pressure;Samples;Min_cycle;Max_cycle;Signal;HPM_P1;HPM_P2
2022/07/24 00:00:43;;;;;;;;;;;;;;;;;;2211101;67;1276;-54
2022/07/24 00:03:19;;;;;;;;;;;;;;;;;;2211511;59;1467;-54
2022/07/24 00:05:52;;;;;;;;;;;;;;;;;;2210185;67;1315;-55
2022/07/24 00:08:25;;;;;;;;;;;;;;;;;;2211330;67;1333;-54
2022/07/24 00:10:58;;;;;;;;;;;;;;;;;;2210603;59;1435;-55
2022/07/24 00:13:32;;;;;;;;;;;;;;;;;;2210833;67;1188;-57
2022/07/24 00:16:05;;;;;;;;;;;;;;;;;;2210804;59;2058;-54
2022/07/24 00:18:41;;;;;;;;;;;;;;;;;;2211355;67;1147;-54
2022/07/24 00:21:14;;;;;;;;;;;;;;;;;;2210926;67;1143;-54
2022/07/24 00:23:47;;;;;;;;;;;;;;;;;;2211048;67;1355;-55
2022/07/24 00:26:20;;;;;;;;;;;;;;;;;;2211135;67;1211;-55
2022/07/24 00:28:54;;;;;;;;;;;;;;;;;;2210990;67;1143;-54
2022/07/24 00:31:27;;;;;;;;;;;;;;;;;;2210929;67;1136;-54
2022/07/24 00:34:03;;;;;;;;;;;;;;;;;;2210841;59;1254;-56
2022/07/24 00:36:36;;;;;;;;;;;;;;;;;;2211346;59;2380;-54
2022/07/24 00:39:09;;;;;;;;;;;;;;;;;;2211107;59;1882;-54
2022/07/24 00:41:42;;;;;;;;;;;;;;;;;;2210811;67;1351;-54
2022/07/24 00:44:17;;;;;;;;;;;;;;;;;;2211190;59;1154;-56
2022/07/24 00:46:50;;;;;;;;;;;;;;;;;;2210929;67;1319;-54
2022/07/24 00:49:26;;;;;;;;;;;;;;;;;;2210721;67;1238;-54
2022/07/24 00:51:59;;;;;;;;;;;;;;;;;;2210387;67;1243;-54
2022/07/24 00:54:32;;;;;;;;;;;;;;;;;;2210418;67;1264;-54
2022/07/24 00:57:06;;;;;;;;;;;;;;;;;;2210351;67;2002;-60
2022/07/24 00:59:39;;;;;;;;;;;;;;;;;;2210645;67;1129;-54
2022/07/24 01:02:12;;;;;;;;;;;;;;;;;;2210659;59;1434;-54
2022/07/24 01:04:48;;;;;;;;;;;;;;;;;;2210510;59;1339;-54
2022/07/24 01:07:21;;;;;;;;;;;;;;;;;;2210589;67;1241;-55
2022/07/24 01:09:54;;;;;;;;;;;;;;;;;;2210353;67;1197;-54
2022/07/24 01:12:28;;;;;;;;;;;;;;;;;;2211219;59;1443;-54
2022/07/24 01:15:01;;;;;;;;;;;;;;;;;;2214064;59;2052;-57
2022/07/24 01:17:35;;;;;;;;;;;;;;;;;;2212358;67;1967;-54
2022/07/24 01:20:12;;;;;;;;;;;;;;;;;;2210113;67;1121;-54
2022/07/24 01:22:48;;;;;;;;;;;;;;;;;;2211226;67;1250;-54
2022/07/24 01:25:21;;;;;;;;;;;;;;;;;;2211575;67;1170;-54
2022/07/24 01:27:54;;;;;;;;;;;;;;;;;;2210540;67;1160;-54
2022/07/24 01:30:27;;;;;;;;;;;;;;;;;;2210643;67;1195;-54
2022/07/24 01:33:01;;;;;;;;;;;;;;;;;;2210287;67;1152;-54
2022/07/24 01:35:34;;;;;;;;;;;;;;;;;;2210351;59;1372;-54
2022/07/24 01:38:10;;;;;;;;;;;;;;;;;;2210347;59;1924;-54
2022/07/24 01:40:43;;;;;;;;;;;;;;;;;;2210257;67;1165;-55
2022/07/24 01:43:16;;;;;;;;;;;;;;;;;;2210459;67;1068;-54
2022/07/24 01:45:49;;;;;;;;;;;;;;;;;;2210943;67;1259;-54
2022/07/24 01:48:22;;;;;;;;;;;;;;;;;;2210983;67;1208;-57
2022/07/24 01:50:56;;;;;;;;;;;;;;;;;;2210913;67;1227;-54
2022/07/24 01:53:32;;;;;;;;;;;;;;;;;;2210653;67;1229;-54
2022/07/24 01:56:05;;;;;;;;;;;;;;;;;;2210964;67;1093;-56
2022/07/24 01:58:39;;;;;;;;;;;;;;;;;;2210838;67;1929;-54
2022/07/24 02:01:12;;;;;;;;;;;;;;;;;;2210242;59;1385;-54
2022/07/24 02:03:46;;;;;;;;;;;;;;;;;;2210520;59;1258;-55
2022/07/24 02:06:19;;;;;;;;;;;;;;;;;;2209911;67;1156;-54
2022/07/24 02:08:55;;;;;;;;;;;;;;;;;;2210594;67;1213;-54
2022/07/24 02:11:28;;;;;;;;;;;;;;;;;;2211091;59;1363;-57
2022/07/24 02:14:02;;;;;;;;;;;;;;;;;;2211184;67;1256;-54
2022/07/24 02:16:35;;;;;;;;;;;;;;;;;;2211039;67;2033;-54
2022/07/24 02:19:08;;;;;;;;;;;;;;;;;;2210964;67;1207;-54
2022/07/24 02:21:41;;;;;;;;;;;;;;;;;;2210924;67;1237;-54
2022/07/24 02:24:17;;;;;;;;;;;;;;;;;;2210878;67;1200;-54
2022/07/24 02:26:50;;;;;;;;;;;;;;;;;;2210933;67;1174;-54
2022/07/24 02:29:24;;;;;;;;;;;;;;;;;;2211013;67;1127;-54
2022/07/24 02:31:57;;;;;;;;;;;;;;;;;;2211091;59;1217;-54
2022/07/24 02:34:30;;;;;;;;;;;;;;;;;;2211225;59;1268;-54
2022/07/24 02:37:03;;;;;;;;;;;;;;;;;;2210890;59;1915;-54
2022/07/24 02:39:39;;;;;;;;;;;;;;;;;;2209963;67;1208;-54
2022/07/24 02:42:12;;;;;;;;;;;;;;;;;;2210698;67;1238;-54
2022/07/24 02:44:45;;;;;;;;;;;;;;;;;;2210651;67;1258;-55
2022/07/24 02:47:19;;;;;;;;;;;;;;;;;;2210475;67;1156;-54
2022/07/24 02:49:52;;;;;;;;;;;;;;;;;;2210909;67;1117;-56
2022/07/24 02:52:25;;;;;;;;;;;;;;;;;;2211213;67;1238;-54
2022/07/24 02:55:01;;;;;;;;;;;;;;;;;;2211239;67;1234;-54
2022/07/24 02:57:34;;;;;;;;;;;;;;;;;;2211323;67;1933;-54
2022/07/24 03:00:08;;;;;;;;;;;;;;;;;;2211271;67;1003;-55
2022/07/24 03:02:41;;;;;;;;;;;;;;;;;;2210697;59;1489;-54
2022/07/24 03:05:15;;;;;;;;;;;;;;;;;;2210139;59;1565;-55
2022/07/24 03:07:48;;;;;;;;;;;;;;;;;;2211222;59;1236;-54
2022/07/24 03:10:24;;;;;;;;;;;;;;;;;;2211215;67;1112;-54
2022/07/24 03:12:57;;;;;;;;;;;;;;;;;;2210669;59;1654;-54
2022/07/24 03:15:31;;;;;;;;;;;;;;;;;;2210692;59;1927;-53
2022/07/24 03:18:04;;;;;;;;;;;;;;;;;;2211117;67;1933;-55
2022/07/24 03:20:37;;;;;;;;;;;;;;;;;;2210751;59;1319;-54
2022/07/24 03:23:10;;;;;;;;;;;;;;;;;;2211045;67;1193;-54
2022/07/24 03:25:46;;;;;;;;;;;;;;;;;;2210939;67;1276;-55
2022/07/24 03:28:19;;;;;;;;;;;;;;;;;;2211254;67;1213;-54
2022/07/24 03:30:52;;;;;;;;;;;;;;;;;;2210755;67;1279;-55
2022/07/24 03:33:26;;;;;;;;;;;;;;;;;;2211150;67;1118;-54
2022/07/24 03:35:59;;;;;;;;;;;;;;;;;;2210603;59;1292;-54
2022/07/24 03:38:32;;;;;;;;;;;;;;;;;;2210679;59;2034;-54
2022/07/24 03:41:08;;;;;;;;;;;;;;;;;;2210861;67;1144;-54
2022/07/24 03:43:41;;;;;;;;;;;;;;;;;;2210961;67;1241;-54
2022/07/24 03:46:14;;;;;;;;;;;;;;;;;;2211031;67;1233;-54
2022/07/24 03:48:47;;;;;;;;;;;;;;;;;;2210613;67;1145;-53
2022/07/24 03:51:20;;;;;;;;;;;;;;;;;;2210832;67;1074;-53
2022/07/24 03:53:54;;;;;;;;;;;;;;;;;;2213781;67;1240;-54
2022/07/24 03:56:30;;;;;;;;;;;;;;;;;;2214583;67;1093;-54
2022/07/24 03:59:03;;;;;;;;;;;;;;;;;;2210784;67;1933;-55
2022/07/24 04:01:36;;;;;;;;;;;;;;;;;;2210518;59;1451;-54
2022/07/24 04:04:09;;;;;;;;;;;;;;;;;;2210496;59;1293;-55
2022/07/24 04:06:43;;;;;;;;;;;;;;;;;;2212428;67;1271;-54
2022/07/24 04:09:16;;;;;;;;;;;;;;;;;;2211765;67;1247;-55
2022/07/24 04:11:52;;;;;;;;;;;;;;;;;;2211900;59;1386;-54
2022/07/24 04:14:25;;;;;;;;;;;;;;;;;;2212200;66;1263;-53
2022/07/24 04:16:58;;;;;;;;;;;;;;;;;;2212098;59;2000;-53
2022/07/24 04:19:31;;;;;;;;;;;;;;;;;;2211524;67;1941;-53
2022/07/24 04:22:05;;;;;;;;;;;;;;;;;;2210620;67;1121;-54
2022/07/24 04:24:38;;;;;;;;;;;;;;;;;;2211802;67;1220;-53
2022/07/24 04:27:14;;;;;;;;;;;;;;;;;;2212459;67;1103;-55
2022/07/24 04:29:47;;;;;;;;;;;;;;;;;;2214379;67;1138;-53
2022/07/24 04:32:20;;;;;;;;;;;;;;;;;;2211450;67;1150;-53
2022/07/24 04:34:53;;;;;;;;;;;;;;;;;;2211089;59;1189;-54
2022/07/24 04:37:26;;;;;;;;;;;;;;;;;;2211121;59;1928;-55
2022/07/24 04:40:00;;;;;;;;;;;;;;;;;;2211316;67;1228;-53
2022/07/24 04:42:36;;;;;;;;;;;;;;;;;;2211880;67;1268;-53
2022/07/24 04:45:10;;;;;;;;;;;;;;;;;;2211084;67;1251;-54
2022/07/24 04:47:43;;;;;;;;;;;;;;;;;;2211912;67;1099;-54
2022/07/24 04:50:16;;;;;;;;;;;;;;;;;;2211829;67;1086;-53
2022/07/24 04:52:49;;;;;;;;;;;;;;;;;;2212050;67;1238;-54
2022/07/24 04:55:23;;;;;;;;;;;;;;;;;;2210761;67;1214;-53
2022/07/24 04:57:58;;;;;;;;;;;;;;;;;;2211735;67;1983;-54
2022/07/24 05:00:32;;;;;;;;;;;;;;;;;;2211907;67;1597;-53
2022/07/24 05:03:05;;;;;;;;;;;;;;;;;;2211353;59;1350;-54
2022/07/24 05:05:38;;;;;;;;;;;;;;;;;;2210962;67;1218;-54
2022/07/24 05:08:11;;;;;;;;;;;;;;;;;;2210438;67;1146;-57
2022/07/24 05:10:44;;;;;;;;;;;;;;;;;;2210924;59;1406;-54
2022/07/24 05:13:20;;;;;;;;;;;;;;;;;;2211474;59;1534;-54
2022/07/24 05:15:55;;;;;;;;;;;;;;;;;;2211161;67;2667;-54
2022/07/24 05:18:28;;;;;;;;;;;;;;;;;;2211281;67;1988;-53
2022/07/24 05:21:01;;;;;;;;;;;;;;;;;;2210486;67;1304;-55
2022/07/24 05:23:34;;;;;;;;;;;;;;;;;;2211586;67;1262;-58
2022/07/24 05:26:07;;;;;;;;;;;;;;;;;;2210736;67;1867;-56
2022/07/24 05:28:43;;;;;;;;;;;;;;;;;;2210799;67;1262;-53
2022/07/24 05:31:16;;;;;;;;;;;;;;;;;;2210795;67;1123;-54
2022/07/24 05:33:50;;;;;;;;;;;;;;;;;;2211111;67;1262;-54
2022/07/24 05:36:23;;;;;;;;;;;;;;;;;;2211068;59;1389;-53
2022/07/24 05:38:56;;;;;;;;;;;;;;;;;;2211355;67;2158;-54
2022/07/24 05:41:29;;;;;;;;;;;;;;;;;;2211238;67;1079;-53
2022/07/24 05:44:05;;;;;;;;;;;;;;;;;;2210906;67;1231;-58
2022/07/24 05:46:38;;;;;;;;;;;;;;;;;;2211355;67;1340;-53
2022/07/24 05:49:11;;;;;;;;;;;;;;;;;;2210834;67;1100;-56
2022/07/24 05:51:44;;;;;;;;;;;;;;;;;;2211148;67;1232;-53
2022/07/24 05:54:18;;;;;;;;;;;;;;;;;;2210670;67;1171;-53
2022/07/24 05:56:51;;;;;;;;;;;;;;;;;;2209880;67;1244;-56
2022/07/24 05:59:27;;;;;;;;;;;;;;;;;;2210329;67;1933;-53
2022/07/24 06:02:03;;;;;;;;;;;;;;;;;;2210454;67;1225;-54
2022/07/24 06:04:41;;;;;;;;;;;;;;;;;;2210299;59;1236;-54
2022/07/24 06:07:14;;;;;;;;;;;;;;;;;;2210605;67;1183;-53
2022/07/24 06:09:48;;;;;;;;;;;;;;;;;;2210983;67;1239;-53
2022/07/24 06:12:21;;;;;;;;;;;;;;;;;;2210538;59;1642;-55
2022/07/24 06:14:57;;;;;;;;;;;;;;;;;;2210625;59;2125;-53
2022/07/24 06:17:30;;;;;;;;;;;;;;;;;;2210410;67;1314;-54
2022/07/24 06:20:03;;;;;;;;;;;;;;;;;;2210381;67;1989;-57
2022/07/24 06:22:36;;;;;;;;;;;;;;;;;;2210766;67;1177;-58
2022/07/24 06:25:10;;;;;;;;;;;;;;;;;;2210878;67;1126;-54
2022/07/24 06:27:43;;;;;;;;;;;;;;;;;;2211113;67;1171;-55
2022/07/24 06:30:21;;;;;;;;;;;;;;;;;;2210854;67;1135;-53
2022/07/24 06:32:55;;;;;;;;;;;;;;;;;;2210890;67;1260;-53
2022/07/24 06:35:32;;;;;;;;;;;;;;;;;;2214669;59;1410;-53
2022/07/24 06:38:05;;;;;;;;;;;;;;;;;;2213618;59;2190;-54
2022/07/24 06:40:39;;;;;;;;;;;;;;;;;;2210646;67;1932;-54
2022/07/24 06:43:12;;;;;;;;;;;;;;;;;;2210127;67;1681;-55
2022/07/24 06:45:48;;;;;;;;;;;;;;;;;;2211038;66;1226;-56
2022/07/24 06:48:21;;;;;;;;;;;;;;;;;;2210469;67;1211;-55
2022/07/24 06:50:54;;;;;;;;;;;;;;;;;;2210092;67;1240;-54
2022/07/24 06:53:27;;;;;;;;;;;;;;;;;;2210295;67;1164;-54
2022/07/24 06:56:00;;;;;;;;;;;;;;;;;;2210171;67;1241;-54
2022/07/24 06:58:33;;;;;;;;;;;;;;;;;;2210673;67;1926;-55
2022/07/24 07:01:10;;;;;;;;;;;;;;;;;;2207078;67;1196;-54
2022/07/24 07:03:43;;;;;;;;;;;;;;;;;;2210292;66;1209;-54
2022/07/24 07:06:16;;;;;;;;;;;;;;;;;;2210975;59;1597;-54
2022/07/24 07:08:49;;;;;;;;;;;;;;;;;;2210645;67;1152;-55
2022/07/24 07:11:22;;;;;;;;;;;;;;;;;;2210861;59;1393;-54
2022/07/24 07:13:55;;;;;;;;;;;;;;;;;;2210808;59;1278;-61
2022/07/24 07:16:31;;;;;;;;;;;;;;;;;;2211085;59;2071;-54
2022/07/24 07:19:04;;;;;;;;;;;;;;;;;;2210979;67;1976;-54
2022/07/24 07:21:38;;;;;;;;;;;;;;;;;;2212075;67;1173;-54
2022/07/24 07:24:11;;;;;;;;;;;;;;;;;;2212787;67;1171;-60
2022/07/24 07:26:44;;;;;;;;;;;;;;;;;;2213022;67;1174;-57
2022/07/24 07:29:17;;;;;;;;;;;;;;;;;;2212803;67;1244;-54
2022/07/24 07:31:53;;;;;;;;;;;;;;;;;;2214968;67;1218;-54
2022/07/24 07:34:26;;;;;;;;;;;;;;;;;;2215939;59;1258;-55
2022/07/24 07:37:00;;;;;;;;;;;;;;;;;;2211159;59;1331;-54
2022/07/24 07:39:33;;;;;;;;;;;;;;;;;;2211004;59;2396;-54
2022/07/24 07:42:06;;;;;;;;;;;;;;;;;;2210741;67;1144;-55
2022/07/24 07:44:39;;;;;;;;;;;;;;;;;;2210887;67;1238;-56
2022/07/24 07:47:15;;;;;;;;;;;;;;;;;;2210896;67;1035;-58
2022/07/24 07:49:48;;;;;;;;;;;;;;;;;;2210508;67;1221;-54
2022/07/24 07:52:21;;;;;;;;;;;;;;;;;;2210780;67;1274;-54
2022/07/24 07:54:55;;;;;;;;;;;;;;;;;;2210665;67;1258;-56
2022/07/24 07:57:28;;;;;;;;;;;;;;;;;;2210838;67;1135;-55
2022/07/24 08:00:01;;;;;;;;;;;;;;;;;;2211315;67;1994;-54
2022/07/24 08:02:37;;;;;;;;;;;;;;;;;;2211067;67;1085;-54
2022/07/24 08:05:10;;;;;;;;;;;;;;;;;;2210877;59;1437;-55
2022/07/24 08:07:43;;;;;;;;;;;;;;;;;;2210987;67;1243;-55
2022/07/24 08:10:17;;;;;;;;;;;;;;;;;;2211552;67;1166;-57
2022/07/24 08:12:50;;;;;;;;;;;;;;;;;;2211437;59;1791;-56
2022/07/24 08:15:23;;;;;;;;;;;;;;;;;;2211048;59;1998;-58
2022/07/24 08:17:59;;;;;;;;;;;;;;;;;;2210902;67;1169;-55
2022/07/24 08:20:33;;;;;;;;;;;;;;;;;;2210955;67;1937;-56
2022/07/24 08:23:06;;;;;;;;;;;;;;;;;;2211178;67;1156;-55
2022/07/24 08:25:39;;;;;;;;;;;;;;;;;;2210407;67;1185;-56
2022/07/24 08:28:12;;;;;;;;;;;;;;;;;;2210878;67;1220;-57
2022/07/24 08:30:45;;;;;;;;;;;;;;;;;;2209983;67;1083;-54
2022/07/24 08:33:21;;;;;;;;;;;;;;;;;;2210859;67;1149;-55
2022/07/24 08:35:54;;;;;;;;;;;;;;;;;;2210608;59;1727;-57
2022/07/24 08:38:27;;;;;;;;;;;;;;;;;;2210654;59;2125;-55
2022/07/24 08:41:01;;;;;;;;;;;;;;;;;;2210505;67;1986;-53
2022/07/24 08:43:34;;;;;;;;;;;;;;;;;;2210577;67;1198;-57
2022/07/24 08:46:11;;;;;;;;;;;;;;;;;;2210802;67;1214;-54
2022/07/24 08:48:48;;;;;;;;;;;;;;;;;;2210617;67;1234;-55
2022/07/24 08:51:22;;;;;;;;;;;;;;;;;;2206844;67;1413;-55
2022/07/24 08:53:55;;;;;;;;;;;;;;;;;;2210562;67;1277;-56
2022/07/24 08:56:28;;;;;;;;;;;;;;;;;;2211124;67;1230;-55
2022/07/24 08:59:02;;;;;;;;;;;;;;;;;;2210800;67;1931;-54
2022/07/24 09:01:35;;;;;;;;;;;;;;;;;;2211079;67;1304;-55
2022/07/24 09:04:31;;;;;;;;;;;;;;;;;;2211136;59;1292;-56
2022/07/24 09:07:05;;;;;;;;;;;;;;;;;;2210678;67;1192;-57
2022/07/24 09:09:39;;;;;;;;;;;;;;;;;;2210840;67;1702;-54
2022/07/24 09:12:13;;;;;;;;;;;;;;;;;;2210867;59;1376;-54
2022/07/24 09:14:47;;;;;;;;;;;;;;;;;;2213378;67;1273;-54
2022/07/24 09:17:21;;;;;;;;;;;;;;;;;;2214936;59;2059;-54
2022/07/24 09:19:58;;;;;;;;;;;;;;;;;;2213778;67;1971;-60
2022/07/24 09:22:35;;;;;;;;;;;;;;;;;;2210980;67;1207;-55
2022/07/24 09:25:14;;;;;;;;;;;;;;;;;;2210952;67;1166;-55
2022/07/24 09:27:49;;;;;;;;;;;;;;;;;;2211119;67;1209;-55
2022/07/24 09:30:28;;;;;;;;;;;;;;;;;;2210656;67;1267;-55
2022/07/24 09:33:02;;;;;;;;;;;;;;;;;;2210685;67;1201;-55
2022/07/24 09:35:39;;;;;;;;;;;;;;;;;;2210460;59;1368;-56
2022/07/24 09:38:13;;;;;;;;;;;;;;;;;;2210626;59;2107;-55
2022/07/24 09:40:48;;;;;;;;;;;;;;;;;;2210126;67;1932;-58
2022/07/24 09:43:23;;;;;;;;;;;;;;;;;;2210614;67;1235;-55
2022/07/24 09:46:00;;;;;;;;;;;;;;;;;;2210678;67;1214;-58
2022/07/24 09:48:35;;;;;;;;;;;;;;;;;;2213365;53;2046;-76
2022/07/24 09:51:12;;;;;;;;;;;;;;;;;;2205057;59;2597;-76
2022/07/24 09:53:46;;;;;;;;;;;;;;;;;;2205112;67;1230;-76
2022/07/24 09:56:20;;;;;;;;;;;;;;;;;;2202122;67;1266;-76
2022/07/24 09:58:54;;;;;;;;;;;;;;;;;;2201010;67;1125;-75
2022/07/24 10:01:28;;;;;;;;;;;;;;;;;;2200883;59;1992;-75
2022/07/24 10:04:02;;;;;;;;;;;;;;;;;;2200707;60;1606;-76
2022/07/24 10:06:38;;;;;;;;;;;;;;;;;;2201416;67;1806;-76
2022/07/24 10:09:14;;;;;;;;;;;;;;;;;;2201885;67;1115;-76
2022/07/24 10:11:52;;;;;;;;;;;;;;;;;;2202446;59;1384;-76
2022/07/24 10:14:26;;;;;;;;;;;;;;;;;;2202559;59;1212;-75
2022/07/24 10:17:06;;;;;;;;;;;;;;;;;;2202112;59;1936;-75
2022/07/24 10:19:41;;;;;;;;;;;;;;;;;;2202434;67;1894;-76
2022/07/24 10:22:19;;;;;;;;;;;;;;;;;;2202285;67;1154;-76
2022/07/24 10:24:56;;;;;;;;;;;;;;;;;;2202668;67;1221;-75
2022/07/24 10:27:31;;;;;;;;;;;;;;;;;;2202487;67;1093;-76
2022/07/24 10:30:06;;;;;;;;;;;;;;;;;;2202066;67;1172;-76
2022/07/24 10:32:40;;;;;;;;;;;;;;;;;;2203217;60;1333;-76
2022/07/24 10:35:19;;;;;;;;;;;;;;;;;;2203029;67;1199;-76
2022/07/24 10:38:05;;;;;;;;;;;;;;;;;;2202886;59;2071;-76
2022/07/24 10:40:42;;;;;;;;;;;;;;;;;;2203066;67;1926;-76
2022/07/24 10:43:16;;;;;;;;;;;;;;;;;;2203110;59;1152;-75
2022/07/24 10:46:09;;;;;;;;;;;;;;;;;;2203543;67;1167;-76
2022/07/24 10:48:43;;;;;;;;;;;;;;;;;;2203198;59;1200;-75
2022/07/24 10:51:17;;;;;;;;;;;;;;;;;;2202651;59;3062;-76
2022/07/24 10:53:57;;;;;;;;;;;;;;;;;;2202991;67;1263;-76
2022/07/24 10:56:30;;;;;;;;;;;;;;;;;;2203470;67;1216;-75
2022/07/24 10:59:07;;;;;;;;;;;;;;;;;;2202724;67;1153;-75
2022/07/24 11:01:42;;;;;;;;;;;;;;;;;;2202662;67;1924;-76
2022/07/24 11:04:32;;;;;;;;;;;;;;;;;;2202885;59;1624;-76
2022/07/24 11:07:12;;;;;;;;;;;;;;;;;;2201879;67;1095;-76
2022/07/24 11:10:01;;;;;;;;;;;;;;;;;;2201802;67;1181;-76
2022/07/24 11:12:35;;;;;;;;;;;;;;;;;;2202510;59;1480;-76
2022/07/24 11:18:14;;;;;;;;;;;;;;;;;;2201932;67;1069;-75
2022/07/24 11:20:48;;;;;;;;;;;;;;;;;;2202665;67;1979;-76
2022/07/24 11:23:21;;;;;;;;;;;;;;;;;;2202215;67;1208;-76
2022/07/24 11:26:22;;;;;;;;;;;;;;;;;;2202520;67;1248;-76
2022/07/24 11:29:10;;;;;;;;;;;;;;;;;;2199050;67;1309;-76
2022/07/24 11:31:43;;;;;;;;;;;;;;;;;;2202924;67;1296;-77
2022/07/24 11:34:16;;;;;;;;;;;;;;;;;;2202063;67;1097;-76
2022/07/24 11:36:51;;;;;;;;;;;;;;;;;;2202399;67;1403;-76
2022/07/24 11:39:29;;;;;;;;;;;;;;;;;;2202346;59;2171;-77
2022/07/24 11:42:06;;;;;;;;;;;;;;;;;;2202082;67;1937;-76
2022/07/24 11:44:40;;;;;;;;;;;;;;;;;;2199349;67;1389;-76
2022/07/24 11:47:14;;;;;;;;;;;;;;;;;;2202066;67;1078;-76
2022/07/24 11:49:48;;;;;;;;;;;;;;;;;;2201800;59;1174;-76
2022/07/24 11:52:22;;;;;;;;;;;;;;;;;;2202971;67;1259;-76
2022/07/24 11:54:56;;;;;;;;;;;;;;;;;;2202322;67;1178;-76
2022/07/24 11:57:34;;;;;;;;;;;;;;;;;;2202042;67;1191;-76
2022/07/24 12:00:10;;;;;;;;;;;;;;;;;;2201846;59;2256;-76
2022/07/24 12:02:46;;;;;;;;;;;;;;;;;;2201807;59;1235;-76
2022/07/24 12:05:26;;;;;;;;;;;;;;;;;;2202190;59;1319;-76
2022/07/24 12:08:00;;;;;;;;;;;;;;;;;;2201096;59;1142;-76
2022/07/24 12:10:33;;;;;;;;;;;;;;;;;;2201845;59;1318;-76
2022/07/24 12:13:09;;;;;;;;;;;;;;;;;;2202257;67;1100;-76
2022/07/24 12:15:42;;;;;;;;;;;;;;;;;;2198902;67;2106;-76
2022/07/24 12:18:16;;;;;;;;;;;;;;;;;;2201998;59;1176;-76
2022/07/24 12:20:49;;;;;;;;;;;;;;;;;;2202509;67;1935;-76
2022/07/24 12:23:22;;;;;;;;;;;;;;;;;;2202088;67;1212;-76
2022/07/24 12:25:55;;;;;;;;;;;;;;;;;;2202562;67;1209;-76
2022/07/24 12:28:31;;;;;;;;;;;;;;;;;;2202261;67;1252;-76
2022/07/24 12:31:09;;;;;;;;;;;;;;;;;;2201472;67;1060;-76
2022/07/24 12:33:42;;;;;;;;;;;;;;;;;;2198975;59;1338;-76
2022/07/24 12:36:15;;;;;;;;;;;;;;;;;;2201701;59;1324;-76
2022/07/24 12:38:54;;;;;;;;;;;;;;;;;;2202210;59;2008;-76
2022/07/24 12:41:30;;;;;;;;;;;;;;;;;;2201948;67;1929;-75
2022/07/24 12:44:07;;;;;;;;;;;;;;;;;;2197974;67;1767;-75
2022/07/24 12:46:41;;;;;;;;;;;;;;;;;;2202275;67;1203;-75
2022/07/24 12:49:15;;;;;;;;;;;;;;;;;;2202074;67;1318;-76
2022/07/24 12:51:49;;;;;;;;;;;;;;;;;;2202120;59;1224;-76
2022/07/24 12:54:22;;;;;;;;;;;;;;;;;;2202046;59;1213;-76
2022/07/24 12:56:57;;;;;;;;;;;;;;;;;;2201727;67;1246;-76
2022/07/24 12:59:34;;;;;;;;;;;;;;;;;;2201056;59;1185;-76
2022/07/24 13:02:08;;;;;;;;;;;;;;;;;;2201304;59;1977;-75
2022/07/24 13:04:44;;;;;;;;;;;;;;;;;;2202060;59;1213;-76
2022/07/24 13:07:19;;;;;;;;;;;;;;;;;;2201688;67;1150;-75
2022/07/24 13:09:52;;;;;;;;;;;;;;;;;;2201319;59;1249;-76
2022/07/24 13:12:26;;;;;;;;;;;;;;;;;;2201841;59;1292;-76
2022/07/24 13:15:01;;;;;;;;;;;;;;;;;;2201452;59;1932;-76
2022/07/24 13:17:34;;;;;;;;;;;;;;;;;;2201129;67;1179;-76
2022/07/24 13:20:08;;;;;;;;;;;;;;;;;;2201366;67;1132;-75
2022/07/24 13:22:41;;;;;;;;;;;;;;;;;;2201384;67;1981;-76
2022/07/24 13:25:14;;;;;;;;;;;;;;;;;;2201489;67;1290;-75
2022/07/24 13:27:48;;;;;;;;;;;;;;;;;;2201376;59;1148;-76
2022/07/24 13:30:24;;;;;;;;;;;;;;;;;;2201123;67;1162;-76
2022/07/24 13:32:57;;;;;;;;;;;;;;;;;;2201251;59;1280;-76
2022/07/24 13:35:30;;;;;;;;;;;;;;;;;;2201673;59;1364;-76
2022/07/24 13:38:03;;;;;;;;;;;;;;;;;;2200856;59;2030;-76
2022/07/24 13:40:36;;;;;;;;;;;;;;;;;;2201183;67;1268;-76
2022/07/24 13:43:09;;;;;;;;;;;;;;;;;;2197598;67;1137;-75
2022/07/24 13:45:45;;;;;;;;;;;;;;;;;;2201607;67;1199;-76
2022/07/24 13:48:18;;;;;;;;;;;;;;;;;;2201250;67;1082;-76
2022/07/24 13:50:52;;;;;;;;;;;;;;;;;;2201339;60;1202;-76
2022/07/24 13:53:25;;;;;;;;;;;;;;;;;;2201938;67;1257;-75
2022/07/24 13:55:58;;;;;;;;;;;;;;;;;;2201445;67;1265;-75
2022/07/24 13:58:31;;;;;;;;;;;;;;;;;;2201716;59;1164;-76
2022/07/24 14:03:43;;;;;;;;;;;;;;;;;;2200787;59;1250;-65
2022/07/24 14:06:17;;;;;;;;;;;;;;;;;;2201763;67;1203;-65
2022/07/24 14:08:50;;;;;;;;;;;;;;;;;;2202224;67;1228;-66
2022/07/24 14:11:23;;;;;;;;;;;;;;;;;;2201892;59;1412;-65
2022/07/24 14:13:56;;;;;;;;;;;;;;;;;;2202784;67;1215;-65
2022/07/24 14:16:30;;;;;;;;;;;;;;;;;;2202088;59;2062;-65
2022/07/24 14:19:05;;;;;;;;;;;;;;;;;;2202187;67;1253;-64
2022/07/24 14:21:39;;;;;;;;;;;;;;;;;;2202410;67;1942;-64
2022/07/24 14:24:12;;;;;;;;;;;;;;;;;;2202469;67;1195;-66
2022/07/24 14:26:45;;;;;;;;;;;;;;;;;;2199262;67;1271;-64
2022/07/24 14:29:19;;;;;;;;;;;;;;;;;;2202786;67;1304;-66
2022/07/24 14:31:52;;;;;;;;;;;;;;;;;;2202569;67;1069;-63
2022/07/24 14:34:28;;;;;;;;;;;;;;;;;;2202648;67;1189;-64
2022/07/24 14:37:01;;;;;;;;;;;;;;;;;;2202396;67;1483;-65
2022/07/24 14:39:34;;;;;;;;;;;;;;;;;;2201574;67;1205;-65
2022/07/24 14:42:09;;;;;;;;;;;;;;;;;;2202503;67;1932;-65
2022/07/24 14:44:42;;;;;;;;;;;;;;;;;;2202126;67;1203;-64
2022/07/24 14:47:15;;;;;;;;;;;;;;;;;;2202571;67;1122;-66
2022/07/24 14:49:51;;;;;;;;;;;;;;;;;;2202317;67;1262;-64
2022/07/24 14:52:25;;;;;;;;;;;;;;;;;;2202528;67;1215;-65
2022/07/24 14:54:59;;;;;;;;;;;;;;;;;;2202489;67;1204;-65
2022/07/24 14:57:32;;;;;;;;;;;;;;;;;;2202030;67;1299;-65
2022/07/24 15:00:06;;;;;;;;;;;;;;;;;;2198651;67;1544;-62
2022/07/24 15:02:39;;;;;;;;;;;;;;;;;;2202247;59;1945;-64
2022/07/24 15:05:15;;;;;;;;;;;;;;;;;;2202260;67;1243;-63
2022/07/24 15:07:48;;;;;;;;;;;;;;;;;;2203413;67;1188;-64
2022/07/24 15:10:21;;;;;;;;;;;;;;;;;;2202443;67;1231;-65
2022/07/24 15:12:54;;;;;;;;;;;;;;;;;;2202277;59;1755;-64
2022/07/24 15:15:27;;;;;;;;;;;;;;;;;;2202384;59;1856;-64
2022/07/24 15:18:01;;;;;;;;;;;;;;;;;;2202498;67;1287;-64
2022/07/24 15:20:36;;;;;;;;;;;;;;;;;;2202556;67;1268;-63
2022/07/24 15:23:11;;;;;;;;;;;;;;;;;;2202774;67;1923;-65
2022/07/24 15:25:44;;;;;;;;;;;;;;;;;;2202945;67;1195;-66
2022/07/24 15:28:17;;;;;;;;;;;;;;;;;;2202914;67;1207;-65
2022/07/24 15:30:50;;;;;;;;;;;;;;;;;;2202905;67;1273;-66
2022/07/24 15:33:23;;;;;;;;;;;;;;;;;;2202745;67;1302;-65
2022/07/24 15:35:59;;;;;;;;;;;;;;;;;;2202857;59;1427;-65
2022/07/24 15:38:32;;;;;;;;;;;;;;;;;;2201864;67;2038;-66
2022/07/24 15:41:06;;;;;;;;;;;;;;;;;;2202471;67;1174;-65
2022/07/24 15:43:39;;;;;;;;;;;;;;;;;;2202698;67;1986;-65
2022/07/24 15:46:12;;;;;;;;;;;;;;;;;;2203102;67;1173;-66
2022/07/24 15:48:45;;;;;;;;;;;;;;;;;;2202982;67;1281;-65
2022/07/24 15:51:21;;;;;;;;;;;;;;;;;;2202749;59;1175;-65
2022/07/24 15:53:54;;;;;;;;;;;;;;;;;;2203027;67;1251;-66
2022/07/24 15:56:28;;;;;;;;;;;;;;;;;;2202784;67;1204;-65
2022/07/24 15:59:01;;;;;;;;;;;;;;;;;;2202518;67;1258;-65
2022/07/24 16:01:34;;;;;;;;;;;;;;;;;;2202339;59;1939;-66
2022/07/24 16:04:07;;;;;;;;;;;;;;;;;;2202442;59;1247;-66
2022/07/24 16:06:43;;;;;;;;;;;;;;;;;;2202458;67;1213;-65
2022/07/24 16:09:17;;;;;;;;;;;;;;;;;;2202628;67;1243;-66
2022/07/24 16:11:50;;;;;;;;;;;;;;;;;;2202726;59;1430;-66
2022/07/24 16:14:23;;;;;;;;;;;;;;;;;;2202219;67;1253;-65
2022/07/24 16:16:56;;;;;;;;;;;;;;;;;;2202750;59;2058;-65
2022/07/24 16:19:29;;;;;;;;;;;;;;;;;;2202550;67;1227;-66
2022/07/24 16:22:06;;;;;;;;;;;;;;;;;;2201985;67;1938;-65
2022/07/24 16:24:39;;;;;;;;;;;;;;;;;;2201954;67;1110;-64
2022/07/24 16:27:12;;;;;;;;;;;;;;;;;;2202064;67;1135;-64
2022/07/24 16:29:46;;;;;;;;;;;;;;;;;;2202058;67;1251;-66
2022/07/24 16:32:19;;;;;;;;;;;;;;;;;;2202281;67;1140;-64
2022/07/24 16:34:52;;;;;;;;;;;;;;;;;;2202284;67;1196;-64
2022/07/24 16:37:28;;;;;;;;;;;;;;;;;;2202505;59;2014;-64
2022/07/24 16:40:02;;;;;;;;;;;;;;;;;;2202124;67;1277;-65
2022/07/24 16:42:35;;;;;;;;;;;;;;;;;;2201565;59;1925;-65
2022/07/24 16:45:09;;;;;;;;;;;;;;;;;;2202555;67;1567;-66
2022/07/24 16:47:42;;;;;;;;;;;;;;;;;;2202661;67;1220;-66
2022/07/24 16:50:15;;;;;;;;;;;;;;;;;;2202130;67;1201;-64
2022/07/24 16:52:51;;;;;;;;;;;;;;;;;;2198817;67;1642;-65
2022/07/24 16:55:24;;;;;;;;;;;;;;;;;;2202308;67;1244;-65
2022/07/24 16:57:57;;;;;;;;;;;;;;;;;;2202374;67;1237;-66
2022/07/24 17:00:31;;;;;;;;;;;;;;;;;;2202176;59;1299;-65
2022/07/24 17:03:04;;;;;;;;;;;;;;;;;;2202058;59;1925;-64
2022/07/24 17:05:37;;;;;;;;;;;;;;;;;;2202002;67;1454;-64
2022/07/24 17:08:13;;;;;;;;;;;;;;;;;;2202136;67;1054;-66
2022/07/24 17:10:46;;;;;;;;;;;;;;;;;;2202296;59;1518;-65
2022/07/24 17:13:21;;;;;;;;;;;;;;;;;;2198826;67;1236;-66
2022/07/24 17:15:54;;;;;;;;;;;;;;;;;;2202291;59;2016;-65
2022/07/24 17:18:27;;;;;;;;;;;;;;;;;;2202302;67;1216;-64
2022/07/24 17:21:01;;;;;;;;;;;;;;;;;;2201943;67;1175;-63
2022/07/24 17:23:36;;;;;;;;;;;;;;;;;;2202206;67;2031;-65
2022/07/24 17:26:10;;;;;;;;;;;;;;;;;;2202457;67;1231;-64
2022/07/24 17:28:43;;;;;;;;;;;;;;;;;;2201831;67;1259;-65
2022/07/24 17:31:16;;;;;;;;;;;;;;;;;;2201723;67;1045;-65
2022/07/24 17:33:50;;;;;;;;;;;;;;;;;;2202376;67;1179;-66
2022/07/24 17:36:24;;;;;;;;;;;;;;;;;;2201885;67;1474;-63
2022/07/24 17:39:00;;;;;;;;;;;;;;;;;;2202070;59;2073;-65
2022/07/24 17:41:33;;;;;;;;;;;;;;;;;;2202478;67;1264;-63
2022/07/24 17:44:06;;;;;;;;;;;;;;;;;;2201850;67;1938;-66
2022/07/24 17:46:40;;;;;;;;;;;;;;;;;;2202159;67;1125;-64
2022/07/24 17:49:13;;;;;;;;;;;;;;;;;;2202061;67;1129;-65
2022/07/24 17:51:46;;;;;;;;;;;;;;;;;;2201938;67;1188;-65
2022/07/24 17:54:22;;;;;;;;;;;;;;;;;;2202100;67;1236;-64
2022/07/24 17:56:55;;;;;;;;;;;;;;;;;;2202020;67;1197;-65